首页
METAR-TAF:

METAR-TAF

机场 :

阿卜杜勒-阿齐兹国王国际机场

吉达, 沙特阿拉伯

纬度: 21-42N, 经度: 039-11E, 海拔: 15米

当前天气观测

该预报发布于10分钟前的06:00 UTC
静风
温度 33°C
湿度 36%
气压 1011 hPa
能见度10公里或以上
1500米以下无云,无积雨云

METAR: OEJN 170600Z 00000KT CAVOK 33/16 Q1011 NOSIG

时间: 09:10 (06:10 UTC)

预报

该预报发布于1小时和10分钟前的05:00 UTC
预报有效从17日的 06点(UTC)到 18日的 12点(UTC)
风速5节,风向西转西南,有时为15节阵风
能見度: 7000
少量云层高于4000英尺
散云层高于8000英尺
短暂存在
从 17日的 07点(UTC)到 17日的 15点(UTC)
散云层高于4000英尺
几率 20% :
短暂存在
从 17日的 10点(UTC)到 17日的 15点(UTC)
少量云层高于3500英尺, 积雨云.
成为
从 17日的 15点(UTC)到 17日的 17点(UTC)
风速8节,风向
几率 20% :
短暂存在
从 17日的 16点(UTC)到 17日的 21点(UTC)
风速20节,风向多变
能見度: 3000
高吹尘

TAF: OEJN 170500Z 1706/1812 24005G15KT 7000 FEW040 SCT080 TEMPO 1707/1715 SCT040 PROB20 TEMPO 1710/1715 FEW035CB BECMG 1715/1717 08008KT PROB20 TEMPO 1716/1721 VRB20KT 3000 BLDU

超过4000个机场的气象观测和天气预报(METAR&TAF报告)。

可查询的气象台以黄色和红色小点在地图上表示。

将鼠标移到小点上方,可查看气象台名称。

然后点击查看天气观测和预报。

如需切换地图:点击带黑十字的绿色按钮放大地图;点击带横线的绿色按钮缩小地图;或者点击绿色箭头查看邻近地区的地图。


METAR-TAF: